Antes Fort, Pennsylvania
Current Conditions -  °F | °C
As of 11:54 PM on Saturday 20 Dec 2014 (Local Time) from KIPT Reporting Station
Overcast Overcast  
Wind Chill: 27°   Ceiling: 3100
Heat Index: 32°   Visibility: 10mi
Dew Point: 20°   Wind: 5mph
Humidity: 61%   Direction: 260°W
Pressure: 30.26"   Gusts: NA
Location:  41.19°N, 77.22°W
Report Text: KIPT 210454Z AUTO 26004KT 10SM OVC031 00/M07 A3026 RMK AO2 SLP254 T00001067 400111011
Loading
Personal Weather Stations






























Interactive Weather Map New forecast layout! Learn more

10-Day Weather Forecast

Advertisements
Track Severe Weather on mobile